Terminal Aerodrome Forecast
Issued by NWS Blacksburg, VA

Current Version | Previous Version | Graphics & Text | Print | Product List | Glossary On
Versions: 1 2 3 4 5 6 7 8 9 10 11 12 13 14 15 16 17 18 19 20 21 22 23 24
000
FTUS41 KRNK 262116 AAB
TAFBLF
TAF AMD
KBLF 262116Z 2621/2718 21007KT P6SM VCTS BKN035CB OVC070
     FM262200 24009KT 4SM TSRA OVC025CB
     FM270000 26006KT 5SM -SHRA BR OVC015
     FM270300 27004KT 1SM BR OVC004
     FM270600 00000KT 1/2SM FG BKN001
     FM271300 32007KT P6SM SCT015 OVC025=

USA.gov is the U.S. government's official web portal to all federal, state and local government web resources and services.